Time;durP1;ratioP1;P1;durP2;ratioP2;P2;SDS_P1;SDS_P2;PMS_P1;PMS_P2;Temp;Humidity;BMP_temperature;BMP_pressure;BME280_temperature;BME280_humidity;BME280_pressure;Samples;Min_cycle;Max_cycle;Signal;HPM_P1;HPM_P2
2021/05/04 00:00:11;;;;;;;25.67;11.68;;;256.80;1792.00;;;;;;5091952;28;20024;-77
2021/05/04 00:02:36;;;;;;;17.02;12.25;;;256.80;1792.00;;;;;;5091755;28;20039;-78
2021/05/04 00:05:03;;;;;;;16.17;12.10;;;256.70;1817.60;;;;;;5089559;28;20791;-77
2021/05/04 00:07:29;;;;;;;23.42;12.52;;;256.70;1817.60;;;;;;5089303;28;20016;-77
2021/05/04 00:09:54;;;;;;;18.42;12.23;;;256.80;1817.60;;;;;;5089172;28;20104;-77
2021/05/04 00:12:20;;;;;;;20.00;12.65;;;256.80;1817.60;;;;;;5083100;28;20488;-76
2021/05/04 00:14:46;;;;;;;21.33;12.48;;;256.80;1817.60;;;;;;5089292;28;20042;-76
2021/05/04 00:17:12;;;;;;;19.48;13.35;;;256.80;1817.60;;;;;;5077707;28;20020;-76
2021/05/04 00:19:39;;;;;;;19.30;11.43;;;256.80;1817.60;;;;;;5097110;28;20024;-76
2021/05/04 00:22:06;;;;;;;19.13;11.73;;;256.80;1792.00;;;;;;5076313;28;20746;-77
2021/05/04 00:24:32;;;;;;;19.92;11.93;;;256.90;1817.60;;;;;;5090015;28;20028;-76
2021/05/04 00:26:58;;;;;;;20.88;13.55;;;281.60;1843.20;;;;;;5091977;28;20023;-76
2021/05/04 00:29:24;;;;;;;19.50;12.57;;;256.90;1817.60;;;;;;5089992;28;20024;-76
2021/05/04 00:31:50;;;;;;;19.20;11.57;;;281.60;1843.20;;;;;;5087459;28;20024;-76
2021/05/04 00:34:15;;;;;;;20.20;13.63;;;256.90;1817.60;;;;;;5070190;28;20016;-76
2021/05/04 00:36:41;;;;;;;18.65;12.57;;;256.80;1817.60;;;;;;5073461;28;20055;-77
2021/05/04 00:39:07;;;;;;;18.55;13.45;;;256.70;1817.60;;;;;;5085606;28;20024;-77
2021/05/04 00:41:32;;;;;;;20.50;13.88;;;256.60;1843.20;;;;;;5085058;28;20024;-76
2021/05/04 00:43:58;;;;;;;19.98;14.38;;;256.60;1843.20;;;;;;5070256;28;20074;-76
2021/05/04 00:46:24;;;;;;;21.63;15.05;;;256.60;1843.20;;;;;;5086519;28;20082;-76
2021/05/04 00:48:50;;;;;;;17.23;12.23;;;256.60;1843.20;;;;;;5077953;28;20107;-76
2021/05/04 00:51:15;;;;;;;19.02;13.18;;;256.70;1843.20;;;;;;5091845;28;20054;-76
2021/05/04 00:53:42;;;;;;;25.23;13.25;;;256.70;1843.20;;;;;;5089959;28;20030;-76
2021/05/04 00:56:09;;;;;;;20.63;13.40;;;256.60;1843.20;;;;;;5091940;28;20065;-76
2021/05/04 00:58:36;;;;;;;17.95;12.68;;;256.80;1843.20;;;;;;5075494;28;20059;-75
2021/05/04 01:01:02;;;;;;;19.10;12.48;;;256.80;1843.20;;;;;;5091500;28;20024;-76
2021/05/04 01:03:29;;;;;;;23.55;14.75;;;256.70;1843.20;;;;;;5083663;28;20475;-76
2021/05/04 01:05:54;;;;;;;19.15;14.40;;;256.70;1843.20;;;;;;5090680;28;20089;-76
2021/05/04 01:08:20;;;;;;;21.35;14.50;;;256.70;1843.20;;;;;;5091814;28;20099;-76
2021/05/04 01:10:46;;;;;;;20.88;14.38;;;256.80;1843.20;;;;;;5089940;28;20055;-77
2021/05/04 01:13:11;;;;;;;20.25;14.65;;;256.80;1843.20;;;;;;5089781;28;20016;-78
2021/05/04 01:15:41;;;;;;;19.48;12.63;;;256.80;1843.20;;;;;;5101420;28;20368;-77
2021/05/04 01:18:07;;;;;;;22.98;13.75;;;256.70;1843.20;;;;;;5090585;28;20059;-77
2021/05/04 01:20:33;;;;;;;21.55;14.65;;;256.70;1843.20;;;;;;5098712;28;20024;-78
2021/05/04 01:22:59;;;;;;;24.98;15.38;;;256.70;1843.20;;;;;;5086949;28;20797;-77
2021/05/04 01:25:25;;;;;;;23.75;14.02;;;256.70;1843.20;;;;;;5109247;28;20106;-76
2021/05/04 01:27:50;;;;;;;19.65;13.40;;;256.60;1843.20;;;;;;5091387;28;20024;-78
2021/05/04 01:30:17;;;;;;;17.98;13.80;;;256.60;1868.80;;;;;;5094467;28;20049;-78
2021/05/04 01:32:42;;;;;;;19.77;14.65;;;256.50;1868.80;;;;;;5104231;28;20015;-75
2021/05/04 01:35:10;;;;;;;20.60;12.90;;;256.40;1868.80;;;;;;5073850;28;20553;-77
2021/05/04 01:37:37;;;;;;;23.95;14.48;;;256.40;1894.40;;;;;;5082164;28;20024;-77
2021/05/04 01:40:04;;;;;;;17.50;13.73;;;256.40;1894.40;;;;;;5102981;28;20036;-76
2021/05/04 01:42:30;;;;;;;19.48;13.55;;;256.40;1894.40;;;;;;5078500;28;20052;-76
2021/05/04 01:44:55;;;;;;;20.45;13.98;;;256.40;1894.40;;;;;;5074663;28;20016;-77
2021/05/04 01:47:21;;;;;;;18.77;13.43;;;256.40;1894.40;;;;;;5089509;28;20024;-77
2021/05/04 01:49:47;;;;;;;22.40;14.98;;;256.40;1894.40;;;;;;5088749;28;20123;-77
2021/05/04 01:52:12;;;;;;;24.17;14.50;;;256.40;1894.40;;;;;;5089171;28;20020;-76
2021/05/04 01:54:39;;;;;;;18.48;12.95;;;256.40;1894.40;;;;;;5087200;28;20043;-76
2021/05/04 01:57:06;;;;;;;18.73;12.43;;;256.40;1894.40;;;;;;5077255;28;20024;-76
2021/05/04 01:59:32;;;;;;;19.25;13.40;;;256.30;1920.00;;;;;;5085077;28;20052;-76
2021/05/04 02:01:58;;;;;;;18.45;13.00;;;256.30;1920.00;;;;;;5090265;28;20051;-77
2021/05/04 02:04:25;;;;;;;19.20;14.25;;;256.30;1920.00;;;;;;5084735;28;20098;-77
2021/05/04 02:06:51;;;;;;;20.65;14.43;;;256.20;1920.00;;;;;;5089876;28;20069;-77
2021/05/04 02:09:17;;;;;;;20.20;14.15;;;256.20;1945.60;;;;;;5101373;28;20106;-76
2021/05/04 02:11:43;;;;;;;19.48;14.35;;;256.20;1920.00;;;;;;5099708;28;20024;-76
2021/05/04 02:14:09;;;;;;;21.23;14.88;;;256.20;1945.60;;;;;;5113229;28;20023;-76
2021/05/04 02:16:36;;;;;;;22.77;13.98;;;256.20;1945.60;;;;;;5094202;28;20026;-76
2021/05/04 02:19:03;;;;;;;22.27;14.25;;;256.20;1945.60;;;;;;5097120;28;20394;-76
2021/05/04 02:21:29;;;;;;;20.75;14.77;;;256.20;1945.60;;;;;;5102160;28;20066;-76
2021/05/04 02:23:55;;;;;;;21.60;13.50;;;256.20;1945.60;;;;;;5109663;28;20383;-77
2021/05/04 02:26:20;;;;;;;18.00;14.00;;;256.10;1945.60;;;;;;5114410;28;20030;-76
2021/05/04 02:28:46;;;;;;;20.55;13.75;;;256.10;1945.60;;;;;;5083187;28;20029;-75
2021/05/04 02:31:13;;;;;;;20.45;13.55;;;256.10;1945.60;;;;;;5073540;28;20013;-76
2021/05/04 02:33:40;;;;;;;19.00;13.65;;;256.10;1945.60;;;;;;5097091;28;20099;-75
2021/05/04 02:36:07;;;;;;;18.35;13.60;;;256.10;1945.60;;;;;;5090257;28;20024;-75
2021/05/04 02:38:34;;;;;;;18.92;12.73;;;256.10;1945.60;;;;;;5096191;28;20110;-75
2021/05/04 02:41:01;;;;;;;23.65;13.48;;;256.10;1945.60;;;;;;5099833;28;20024;-74
2021/05/04 02:43:27;;;;;;;23.38;13.55;;;256.10;1945.60;;;;;;5108538;28;20027;-75
2021/05/04 02:45:53;;;;;;;17.58;14.18;;;256.00;1971.20;;;;;;5112119;28;20395;-75
2021/05/04 02:48:19;;;;;;;18.63;13.10;;;256.00;1971.20;;;;;;5113836;28;20024;-75
2021/05/04 02:50:45;;;;;;;19.80;13.63;;;256.00;1971.20;;;;;;5080601;28;20043;-74
2021/05/04 02:53:11;;;;;;;21.58;13.23;;;231.30;1971.20;;;;;;5076715;28;20460;-75
2021/05/04 02:55:37;;;;;;;19.25;13.15;;;256.00;1971.20;;;;;;5092779;28;20032;-75
2021/05/04 02:58:04;;;;;;;18.52;14.73;;;256.00;1971.20;;;;;;5091341;28;20024;-75
2021/05/04 03:00:30;;;;;;;19.50;13.27;;;256.00;1971.20;;;;;;5071350;28;20028;-75
2021/05/04 03:02:56;;;;;;;14.68;11.63;;;256.00;1945.60;;;;;;5091654;28;20032;-74
2021/05/04 03:05:21;;;;;;;17.38;12.82;;;256.10;1945.60;;;;;;5092446;28;20031;-75
2021/05/04 03:07:47;;;;;;;18.40;12.88;;;256.10;1945.60;;;;;;5077827;28;20077;-75
2021/05/04 03:10:13;;;;;;;21.05;13.32;;;256.10;1945.60;;;;;;5082113;28;20390;-75
2021/05/04 03:12:39;;;;;;;19.80;12.82;;;256.00;1945.60;;;;;;5085129;28;20020;-75
2021/05/04 03:15:05;;;;;;;18.23;12.77;;;256.00;1945.60;;;;;;5079239;28;20465;-76
2021/05/04 03:17:31;;;;;;;17.85;12.63;;;256.00;1971.20;;;;;;5091203;28;20545;-75
2021/05/04 03:19:57;;;;;;;20.40;13.30;;;256.00;1971.20;;;;;;5078461;28;20024;-75
2021/05/04 03:22:23;;;;;;;18.42;12.57;;;256.00;1971.20;;;;;;5079355;28;20046;-75
2021/05/04 03:24:48;;;;;;;19.17;12.60;;;256.00;1971.20;;;;;;5087218;28;20016;-74
2021/05/04 03:27:14;;;;;;;20.83;14.00;;;256.00;1971.20;;;;;;5072033;28;20078;-75
2021/05/04 03:29:40;;;;;;;22.25;14.40;;;256.10;1971.20;;;;;;5086478;28;20036;-74
2021/05/04 03:32:06;;;;;;;18.42;13.70;;;256.10;1971.20;;;;;;5090749;28;20557;-76
2021/05/04 03:34:32;;;;;;;21.17;14.45;;;256.10;1971.20;;;;;;5093597;28;20506;-79
2021/05/04 03:36:57;;;;;;;25.02;14.55;;;256.20;1996.80;;;;;;5092209;28;20084;-73
2021/05/04 03:39:23;;;;;;;23.20;14.38;;;256.30;1971.20;;;;;;5092917;28;20036;-71
2021/05/04 03:41:49;;;;;;;22.00;15.13;;;256.30;1971.20;;;;;;5085417;28;20058;-74
2021/05/04 03:44:15;;;;;;;22.85;13.90;;;256.30;1971.20;;;;;;5083144;28;20107;-74
2021/05/04 03:46:41;;;;;;;18.52;13.48;;;256.30;1971.20;;;;;;5092454;28;20035;-74
2021/05/04 03:49:07;;;;;;;19.58;12.95;;;256.30;1971.20;;;;;;5078143;28;20029;-73
2021/05/04 03:51:32;;;;;;;17.65;13.90;;;256.30;1971.20;;;;;;5081434;28;20024;-74
2021/05/04 03:53:58;;;;;;;17.48;12.88;;;256.30;1971.20;;;;;;5081400;28;20400;-74
2021/05/04 03:56:24;;;;;;;17.23;12.63;;;256.40;1971.20;;;;;;5092148;28;20020;-74
2021/05/04 03:58:50;;;;;;;20.63;14.05;;;256.40;1971.20;;;;;;5100896;28;20475;-74
2021/05/04 04:01:15;;;;;;;22.73;15.68;;;256.40;1945.60;;;;;;5095891;28;20035;-74
2021/05/04 04:03:41;;;;;;;22.90;13.75;;;256.40;1945.60;;;;;;5084889;28;20025;-74
2021/05/04 04:06:07;;;;;;;23.15;15.48;;;256.50;1945.60;;;;;;5073490;28;20083;-74
2021/05/04 04:08:32;;;;;;;19.15;14.93;;;256.50;1945.60;;;;;;5076336;28;20086;-74
2021/05/04 04:10:58;;;;;;;20.80;14.45;;;256.50;1945.60;;;;;;5089559;28;20051;-74
2021/05/04 04:13:24;;;;;;;26.00;15.25;;;256.70;1945.60;;;;;;5091974;28;20020;-75
2021/05/04 04:15:50;;;;;;;19.52;14.45;;;256.80;1920.00;;;;;;5078129;28;20108;-75
2021/05/04 04:18:15;;;;;;;21.77;14.73;;;256.90;1920.00;;;;;;5071421;28;20427;-74
2021/05/04 04:20:41;;;;;;;20.52;14.60;;;281.60;1945.60;;;;;;5082163;28;20028;-75
2021/05/04 04:23:07;;;;;;;22.05;13.38;;;281.60;1945.60;;;;;;5091528;28;20032;-75
2021/05/04 04:25:32;;;;;;;19.65;13.68;;;281.80;1920.00;;;;;;5090156;28;20038;-75
2021/05/04 04:27:58;;;;;;;21.88;13.52;;;281.90;1920.00;;;;;;5091640;28;20021;-76
2021/05/04 04:30:24;;;;;;;22.92;14.00;;;281.90;1894.40;;;;;;5091328;28;20380;-75
2021/05/04 04:32:51;;;;;;;16.35;13.15;;;282.00;1868.80;;;;;;5078503;28;20089;-75
2021/05/04 04:35:17;;;;;;;19.20;14.30;;;282.20;1868.80;;;;;;5090163;28;20032;-75
2021/05/04 04:37:43;;;;;;;19.77;13.50;;;282.30;1843.20;;;;;;5080342;28;20028;-75
2021/05/04 04:40:11;;;;;;;20.27;14.40;;;282.40;1843.20;;;;;;5089511;28;20121;-74
2021/05/04 04:42:36;;;;;;;18.48;14.75;;;282.50;1817.60;;;;;;5106731;28;20403;-75
2021/05/04 04:45:03;;;;;;;22.60;16.90;;;307.20;1843.20;;;;;;5111780;28;20024;-75
2021/05/04 04:47:29;;;;;;;16.40;13.20;;;307.40;1817.60;;;;;;5094452;28;20021;-75
2021/05/04 04:49:55;;;;;;;19.88;13.25;;;307.50;1792.00;;;;;;5093904;28;20043;-77
2021/05/04 04:52:21;;;;;;;19.65;13.27;;;307.60;1792.00;;;;;;5089129;28;20028;-78
2021/05/04 04:54:46;;;;;;;18.40;12.30;;;307.70;1766.40;;;;;;5089453;28;20078;-76
2021/05/04 04:57:12;;;;;;;21.67;14.73;;;307.90;1792.00;;;;;;5095253;28;20016;-79
2021/05/04 04:59:38;;;;;;;22.42;14.73;;;308.10;1766.40;;;;;;5092964;28;20084;-78
2021/05/04 05:02:04;;;;;;;22.85;14.05;;;308.10;1766.40;;;;;;5073398;28;20116;-76
2021/05/04 05:04:29;;;;;;;21.08;13.32;;;332.90;1792.00;;;;;;5097734;28;20035;-77
2021/05/04 05:06:56;;;;;;;17.08;13.38;;;333.00;1792.00;;;;;;5076129;28;20025;-76
2021/05/04 05:09:22;;;;;;;19.60;13.15;;;333.10;1766.40;;;;;;5086195;28;20032;-79
2021/05/04 05:11:48;;;;;;;15.40;11.98;;;333.20;1766.40;;;;;;5084043;28;20396;-78
2021/05/04 05:14:13;;;;;;;18.13;12.40;;;333.30;1766.40;;;;;;5087532;28;20017;-80
2021/05/04 05:16:39;;;;;;;18.38;11.95;;;333.40;1740.80;;;;;;5085940;28;20476;-78
2021/05/04 05:19:06;;;;;;;18.65;12.95;;;333.50;1740.80;;;;;;5088953;28;20504;-78
2021/05/04 05:21:34;;;;;;;19.48;12.45;;;333.50;1715.20;;;;;;5092366;28;20035;-78
2021/05/04 05:24:01;;;;;;;15.57;12.32;;;333.70;1689.60;;;;;;5075018;28;20127;-78
2021/05/04 05:26:28;;;;;;;18.42;12.52;;;358.40;1689.60;;;;;;5069641;28;20402;-77
2021/05/04 05:28:55;;;;;;;19.08;11.48;;;358.50;1689.60;;;;;;5085429;28;20032;-79
2021/05/04 05:31:22;;;;;;;14.95;12.43;;;358.70;1664.00;;;;;;5096375;28;20401;-76
2021/05/04 05:33:49;;;;;;;14.90;12.07;;;358.70;1689.60;;;;;;5088679;28;20012;-78
2021/05/04 05:36:15;;;;;;;18.08;13.77;;;358.90;1689.60;;;;;;5091742;28;20024;-78
2021/05/04 05:38:41;;;;;;;17.38;12.75;;;359.00;1689.60;;;;;;5094112;28;20572;-78
2021/05/04 05:41:07;;;;;;;16.48;12.40;;;358.90;1689.60;;;;;;5099156;28;20032;-78
2021/05/04 05:43:33;;;;;;;14.90;12.25;;;358.90;1689.60;;;;;;5094479;28;20043;-78
2021/05/04 05:45:59;;;;;;;15.00;12.20;;;359.10;1689.60;;;;;;5091209;28;20024;-77
2021/05/04 05:48:26;;;;;;;17.27;13.50;;;359.10;1664.00;;;;;;5092319;28;20016;-76
2021/05/04 05:50:52;;;;;;;15.02;12.65;;;384.00;1664.00;;;;;;5092672;28;20022;-76
2021/05/04 05:53:18;;;;;;;19.23;13.38;;;384.00;1664.00;;;;;;5104370;28;20036;-77
2021/05/04 05:55:44;;;;;;;18.58;14.07;;;384.20;1638.40;;;;;;5087258;28;20023;-77
2021/05/04 05:58:11;;;;;;;14.38;12.15;;;384.30;1638.40;;;;;;5084286;28;20028;-76
2021/05/04 06:00:37;;;;;;;17.20;13.45;;;384.50;1612.80;;;;;;5095312;28;20027;-77
2021/05/04 06:03:04;;;;;;;17.55;12.13;;;384.70;1612.80;;;;;;5087438;28;20017;-76
2021/05/04 06:05:33;;;;;;;15.60;12.48;;;384.90;1587.20;;;;;;5085484;28;20031;-77
2021/05/04 06:08:00;;;;;;;17.52;13.05;;;409.60;1612.80;;;;;;5101895;28;20023;-76
2021/05/04 06:10:27;;;;;;;13.45;10.65;;;409.70;1587.20;;;;;;5082585;28;20114;-77
2021/05/04 06:13:01;;;;;;;16.15;12.20;;;409.90;1561.60;;;;;;5093425;28;20025;-76
2021/05/04 06:15:27;;;;;;;13.20;11.07;;;410.20;1536.00;;;;;;5095402;28;20050;-77
2021/05/04 06:17:53;;;;;;;15.93;11.48;;;410.40;1484.80;;;;;;5097767;28;20028;-76
2021/05/04 06:20:19;;;;;;;16.10;11.38;;;410.50;1484.80;;;;;;5094283;28;20103;-76
2021/05/04 06:22:44;;;;;;;15.75;10.77;;;435.40;1433.60;;;;;;5102743;28;20039;-76
2021/05/04 06:25:10;;;;;;;15.95;11.50;;;410.30;1484.80;;;;;;5086589;28;20027;-76
2021/05/04 06:27:36;;;;;;;13.75;11.07;;;410.50;1484.80;;;;;;5100059;28;20252;-76
2021/05/04 06:30:04;;;;;;;14.18;11.02;;;435.30;1459.20;;;;;;5081867;28;20052;-76
2021/05/04 06:32:30;;;;;;;12.10;9.93;;;435.70;1408.00;;;;;;5086364;28;20482;-76
2021/05/04 06:34:56;;;;;;;10.63;8.57;;;435.90;1382.40;;;;;;5073793;28;20229;-76
2021/05/04 06:37:22;;;;;;;13.32;8.73;;;436.10;1356.80;;;;;;5083429;28;20028;-75
2021/05/04 06:39:48;;;;;;;13.98;10.60;;;461.00;1356.80;;;;;;5099853;28;20468;-75
2021/05/04 06:42:13;;;;;;;11.75;9.20;;;461.30;1331.20;;;;;;5084214;28;20028;-76
2021/05/04 06:44:39;;;;;;;9.60;7.50;;;461.50;1280.00;;;;;;5084047;28;20027;-76
2021/05/04 06:47:05;;;;;;;12.52;8.80;;;461.60;1254.40;;;;;;5095341;28;20043;-76
2021/05/04 06:49:31;;;;;;;11.55;8.52;;;486.50;1228.80;;;;;;5090851;28;20012;-76
2021/05/04 06:51:57;;;;;;;12.52;8.50;;;486.60;1203.20;;;;;;5091389;28;20470;-76
2021/05/04 06:54:23;;;;;;;9.85;8.23;;;486.80;1177.60;;;;;;5093680;28;20100;-76
2021/05/04 06:56:49;;;;;;;10.73;6.90;;;486.90;1177.60;;;;;;5078632;28;20497;-76
2021/05/04 06:59:15;;;;;;;10.20;6.88;;;487.00;1126.40;;;;;;5072496;28;20025;-76
2021/05/04 07:01:40;;;;;;;10.23;7.13;;;487.10;1100.80;;;;;;5083646;28;20031;-76
2021/05/04 07:04:07;;;;;;;8.75;6.88;;;512.00;1075.20;;;;;;5089933;28;20100;-76
2021/05/04 07:06:32;;;;;;;10.25;7.57;;;512.10;1075.20;;;;;;5105945;28;20055;-75
2021/05/04 07:08:58;;;;;;;9.15;6.28;;;512.10;1075.20;;;;;;5111255;28;20066;-77
2021/05/04 07:11:24;;;;;;;12.38;7.18;;;512.30;1049.60;;;;;;5093709;28;20044;-76
2021/05/04 07:13:50;;;;;;;10.25;7.00;;;512.50;1049.60;;;;;;5098846;28;20028;-75
2021/05/04 07:16:15;;;;;;;9.25;6.07;;;512.50;1024.00;;;;;;5100593;28;20024;-76
2021/05/04 07:18:42;;;;;;;9.15;6.80;;;512.50;998.40;;;;;;5084643;28;20028;-76
2021/05/04 07:21:09;;;;;;;7.75;5.47;;;512.90;972.80;;;;;;5083172;28;20048;-76
2021/05/04 07:23:36;;;;;;;8.75;6.10;;;537.60;972.80;;;;;;5093436;28;20019;-76
2021/05/04 07:26:03;;;;;;;8.13;6.35;;;537.80;972.80;;;;;;5079627;28;20044;-75
2021/05/04 07:28:29;;;;;;;9.73;6.50;;;538.00;947.20;;;;;;5101855;28;20091;-76
2021/05/04 07:30:55;;;;;;;10.07;6.57;;;538.20;947.20;;;;;;5083121;28;20095;-76
2021/05/04 07:33:21;;;;;;;8.95;5.65;;;538.10;947.20;;;;;;5091364;28;20020;-75
2021/05/04 07:35:48;;;;;;;9.13;6.90;;;538.10;921.60;;;;;;5077614;28;20033;-75
2021/05/04 07:38:15;;;;;;;7.22;5.70;;;538.30;896.00;;;;;;5076160;28;20024;-75
2021/05/04 07:40:42;;;;;;;10.02;6.55;;;538.50;870.40;;;;;;5091965;28;20165;-76
2021/05/04 07:43:08;;;;;;;11.85;6.38;;;563.20;921.60;;;;;;5092466;28;20027;-76
2021/05/04 07:45:34;;;;;;;10.13;5.97;;;538.50;896.00;;;;;;5100907;28;20061;-75
2021/05/04 07:48:02;;;;;;;11.52;6.78;;;563.50;870.40;;;;;;5076769;28;20028;-75
2021/05/04 07:50:28;;;;;;;7.68;4.80;;;563.70;844.80;;;;;;5091066;28;20020;-76
2021/05/04 07:52:55;;;;;;;7.90;5.30;;;563.80;793.60;;;;;;5077872;28;20023;-75
2021/05/04 07:55:21;;;;;;;8.23;4.70;;;563.90;793.60;;;;;;5083002;28;20025;-76
2021/05/04 07:57:46;;;;;;;6.47;4.38;;;564.00;793.60;;;;;;5070169;28;20028;-75
2021/05/04 08:00:14;;;;;;;7.15;4.68;;;564.10;768.00;;;;;;5082886;28;20077;-75
2021/05/04 08:02:40;;;;;;;8.98;5.70;;;588.80;768.00;;;;;;5074226;28;20511;-76
2021/05/04 08:05:08;;;;;;;7.35;4.32;;;589.00;768.00;;;;;;5076496;28;20043;-76
2021/05/04 08:07:34;;;;;;;7.85;5.07;;;589.20;742.40;;;;;;5093388;28;20586;-76
2021/05/04 08:10:00;;;;;;;9.55;5.13;;;589.10;742.40;;;;;;5090751;28;20043;-76
2021/05/04 08:12:25;;;;;;;6.55;4.65;;;589.30;716.80;;;;;;5104133;28;20030;-76
2021/05/04 08:14:52;;;;;;;6.28;4.50;;;589.30;742.40;;;;;;5099983;28;20023;-76
2021/05/04 08:17:20;;;;;;;7.90;5.00;;;589.40;742.40;;;;;;5107019;28;20098;-76
2021/05/04 08:19:46;;;;;;;6.93;4.97;;;614.40;742.40;;;;;;5091953;28;20016;-77
2021/05/04 08:22:12;;;;;;;7.45;4.75;;;589.70;742.40;;;;;;5100597;28;20586;-77
2021/05/04 08:24:38;;;;;;;7.03;4.63;;;614.60;716.80;;;;;;5105505;28;20092;-76
2021/05/04 08:27:05;;;;;;;8.65;4.47;;;614.60;742.40;;;;;;5103759;28;20028;-76
2021/05/04 08:29:31;;;;;;;7.47;4.57;;;614.60;742.40;;;;;;5102264;28;20567;-77
2021/05/04 08:31:57;;;;;;;7.90;4.78;;;614.40;742.40;;;;;;5101278;28;20028;-76
2021/05/04 08:34:23;;;;;;;6.25;4.60;;;614.70;742.40;;;;;;5088969;28;20404;-77
2021/05/04 08:36:49;;;;;;;7.25;4.82;;;614.90;716.80;;;;;;5105724;28;20016;-76
2021/05/04 08:39:15;;;;;;;5.15;4.35;;;614.70;716.80;;;;;;5092664;28;20054;-77
2021/05/04 08:41:43;;;;;;;7.47;4.50;;;614.90;716.80;;;;;;5095002;28;20027;-76
2021/05/04 08:44:15;;;;;;;4.70;3.80;;;640.00;665.60;;;;;;5104145;28;20027;-76
2021/05/04 08:46:41;;;;;;;5.53;3.90;;;640.00;665.60;;;;;;5097746;28;20143;-76
2021/05/04 08:49:08;;;;;;;5.78;4.13;;;640.30;665.60;;;;;;5092803;28;20024;-77
2021/05/04 08:51:34;;;;;;;6.85;4.30;;;640.50;665.60;;;;;;5099047;28;20029;-77
2021/05/04 08:54:00;;;;;;;5.90;4.28;;;665.60;665.60;;;;;;5108312;28;20031;-77
2021/05/04 08:56:26;;;;;;;6.25;4.47;;;665.60;665.60;;;;;;5104659;28;20024;-77
2021/05/04 08:58:52;;;;;;;5.13;3.28;;;665.60;640.00;;;;;;5100222;28;20103;-77
2021/05/04 09:01:18;;;;;;;7.30;4.55;;;665.70;640.00;;;;;;5100088;28;20044;-77
2021/05/04 09:03:49;;;;;;;5.30;3.63;;;665.70;665.60;;;;;;5108655;28;20107;-77
2021/05/04 09:06:21;;;;;;;4.88;3.28;;;666.10;640.00;;;;;;5104393;28;20471;-77
2021/05/04 09:08:53;;;;;;;5.05;4.05;;;666.00;640.00;;;;;;5109399;28;20042;-77
2021/05/04 09:16:50;;;;;;;4.97;3.35;;;691.40;588.80;;;;;;5104385;28;20029;-77
2021/05/04 09:21:54;;;;;;;5.63;3.53;;;691.80;614.40;;;;;;5108374;28;20080;-77
2021/05/04 09:24:19;;;;;;;4.97;3.72;;;692.00;588.80;;;;;;5107257;28;21516;-77
2021/05/04 09:26:46;;;;;;;4.05;3.33;;;692.00;588.80;;;;;;5107458;28;20099;-78
2021/05/04 09:29:12;;;;;;;6.18;3.33;;;717.00;614.40;;;;;;5107116;27;20019;-77
2021/05/04 09:31:39;;;;;;;4.63;2.85;;;717.00;588.80;;;;;;5097865;28;20682;-76
2021/05/04 09:34:10;;;;;;;6.13;3.22;;;716.80;588.80;;;;;;5103617;28;20053;-76
2021/05/04 09:36:51;;;;;;;4.45;3.08;;;717.20;614.40;;;;;;5106872;28;20120;-76
2021/05/04 09:39:28;;;;;;;5.65;3.72;;;717.30;588.80;;;;;;5104212;28;20043;-76
2021/05/04 09:41:56;;;;;;;5.88;3.17;;;717.20;588.80;;;;;;5106939;28;20023;-76
2021/05/04 09:44:39;;;;;;;4.25;2.95;;;717.70;563.20;;;;;;5107885;27;20034;-76
2021/05/04 09:47:11;;;;;;;6.40;3.72;;;742.80;588.80;;;;;;5108071;27;20028;-76
2021/05/04 09:49:39;;;;;;;5.18;3.42;;;742.80;588.80;;;;;;5104439;27;20031;-76
2021/05/04 09:55:03;;;;;;;5.30;3.20;;;743.10;588.80;;;;;;5102487;28;20021;-76
2021/05/04 09:57:38;;;;;;;4.75;3.50;;;743.00;588.80;;;;;;5104861;28;20044;-77
2021/05/04 10:00:06;;;;;;;3.85;2.80;;;743.20;563.20;;;;;;5102963;28;20026;-76
2021/05/04 10:02:32;;;;;;;4.38;3.13;;;768.10;563.20;;;;;;5105104;28;20035;-78
2021/05/04 10:05:02;;;;;;;4.75;2.95;;;768.20;563.20;;;;;;5104086;28;20036;-77
2021/05/04 10:07:31;;;;;;;5.82;3.28;;;768.50;537.60;;;;;;5103220;28;20027;-78
2021/05/04 10:09:58;;;;;;;4.22;2.95;;;768.70;537.60;;;;;;5099810;28;20053;-79
2021/05/04 10:12:25;;;;;;;4.20;2.42;;;768.60;537.60;;;;;;5107756;28;20418;-79
2021/05/04 10:14:52;;;;;;;5.85;3.00;;;768.50;537.60;;;;;;5103588;28;20023;-78
2021/05/04 10:17:19;;;;;;;4.03;3.10;;;768.50;537.60;;;;;;5100353;28;20028;-78
2021/05/04 10:19:47;;;;;;;3.38;2.55;;;768.70;537.60;;;;;;5095966;28;20032;-78
2021/05/04 10:22:13;;;;;;;3.42;2.33;;;768.70;537.60;;;;;;5087694;28;20020;-78
2021/05/04 10:24:41;;;;;;;4.25;2.72;;;768.90;537.60;;;;;;5097924;28;20518;-78
2021/05/04 10:27:08;;;;;;;5.18;2.90;;;768.90;512.00;;;;;;5094377;28;20198;-78
2021/05/04 10:29:38;;;;;;;3.85;2.55;;;794.10;537.60;;;;;;5090340;28;20484;-78
2021/05/04 10:32:05;;;;;;;3.42;2.50;;;794.10;537.60;;;;;;5100800;28;20038;-78
2021/05/04 10:34:33;;;;;;;3.80;2.00;;;794.10;512.00;;;;;;5101386;28;20479;-78
2021/05/04 10:37:03;;;;;;;4.28;2.70;;;794.40;537.60;;;;;;5089883;28;20031;-78
2021/05/04 10:39:46;;;;;;;3.45;2.08;;;794.10;537.60;;;;;;5097801;28;20043;-79
2021/05/04 10:42:37;;;;;;;2.95;2.30;;;768.70;512.00;;;;;;5093594;28;20031;-78
2021/05/04 10:45:02;;;;;;;3.50;1.90;;;793.60;563.20;;;;;;5097281;28;20572;-78
2021/05/04 10:48:00;;;;;;;3.30;2.08;;;794.40;512.00;;;;;;5094732;28;20079;-78
2021/05/04 10:51:02;;;;;;;3.58;2.72;;;819.40;512.00;;;;;;5087150;28;21522;-78
2021/05/04 10:53:57;;;;;;;6.50;4.05;;;794.30;537.60;;;;;;5020467;28;20045;-78
2021/05/04 10:56:46;;;;;;;4.63;2.30;;;819.20;537.60;;;;;;5022457;28;20511;-78
2021/05/04 10:59:34;;;;;;;4.78;3.97;;;819.40;512.00;;;;;;5036879;28;20095;-78
2021/05/04 11:02:09;;;;;;;3.50;2.28;;;819.80;486.40;;;;;;5020292;28;20042;-78
2021/05/04 11:04:45;;;;;;;2.87;2.10;;;793.90;512.00;;;;;;5009825;28;20549;-80
2021/05/04 11:07:12;;;;;;;3.78;2.20;;;793.90;537.60;;;;;;5020262;28;20060;-80
2021/05/04 11:09:39;;;;;;;4.93;2.72;;;819.40;512.00;;;;;;5019959;28;20063;-81
2021/05/04 11:12:06;;;;;;;5.78;2.60;;;819.20;512.00;;;;;;5020310;28;20049;-81
2021/05/04 11:14:37;;;;;;;5.15;2.88;;;819.90;512.00;;;;;;5019482;28;20044;-80
2021/05/04 11:17:13;;;;;;;4.75;3.13;;;819.90;512.00;;;;;;5005854;28;20040;-77
2021/05/04 11:19:41;;;;;;;4.15;2.40;;;819.70;512.00;;;;;;5008655;28;20083;-79
2021/05/04 11:22:08;;;;;;;3.00;1.70;;;819.70;512.00;;;;;;5009043;28;20167;-79
2021/05/04 11:24:36;;;;;;;3.08;1.90;;;819.20;512.00;;;;;;5022915;28;20072;-80
2021/05/04 11:27:21;;;;;;;4.85;3.50;;;819.70;512.00;;;;;;5040008;28;20522;-79
2021/05/04 11:29:50;;;;;;;6.20;4.07;;;820.10;486.40;;;;;;5059489;28;20036;-79
2021/05/04 11:32:27;;;;;;;4.03;2.28;;;819.90;512.00;;;;;;5076444;28;20024;-79
2021/05/04 11:34:57;;;;;;;3.05;2.03;;;844.90;486.40;;;;;;5079345;28;20515;-78
2021/05/04 11:37:23;;;;;;;2.80;2.03;;;820.10;486.40;;;;;;5061063;28;20442;-79
2021/05/04 11:39:59;;;;;;;5.53;1.90;;;844.80;486.40;;;;;;5061795;28;20484;-79
2021/05/04 11:42:52;;;;;;;6.72;2.90;;;845.50;486.40;;;;;;5075612;28;20077;-82
2021/05/04 11:45:30;;;;;;;3.80;2.03;;;870.60;486.40;;;;;;5081125;28;20132;-82
2021/05/04 11:47:57;;;;;;;4.55;2.30;;;870.60;486.40;;;;;;5061573;28;20029;-82
2021/05/04 11:50:24;;;;;;;3.85;2.35;;;871.10;460.80;;;;;;5074878;28;20012;-81
2021/05/04 11:53:17;;;;;;;3.50;2.17;;;870.90;486.40;;;;;;5068741;28;20017;-81
2021/05/04 11:55:45;;;;;;;9.55;6.53;;;870.60;486.40;;;;;;4967568;28;20034;-81
2021/05/04 11:58:17;;;;;;;2.92;2.13;;;870.60;460.80;;;;;;4985489;28;20566;-81
2021/05/04 12:00:42;;;;;;;3.40;2.20;;;845.70;486.40;;;;;;4969445;28;20047;-79
2021/05/04 12:03:15;;;;;;;3.00;1.92;;;870.40;486.40;;;;;;4980358;28;21064;-83
2021/05/04 12:05:44;;;;;;;2.55;1.90;;;870.60;486.40;;;;;;4983505;28;20033;-85
2021/05/04 12:08:11;;;;;;;3.70;2.53;;;870.90;486.40;;;;;;4969605;28;20049;-84
2021/05/04 12:10:38;;;;;;;2.78;1.88;;;870.60;486.40;;;;;;4986171;28;20129;-83
2021/05/04 12:13:13;;;;;;;3.08;1.98;;;871.00;460.80;;;;;;4970164;28;20125;-83
2021/05/04 12:15:41;;;;;;;1.88;1.55;;;870.80;460.80;;;;;;4978168;28;20026;-83
2021/05/04 12:18:23;;;;;;;2.35;1.60;;;870.90;460.80;;;;;;4970754;28;20065;-84
2021/05/04 12:20:51;;;;;;;3.95;2.15;;;871.00;460.80;;;;;;4984351;28;20038;-82
2021/05/04 12:23:34;;;;;;;5.55;2.17;;;845.50;486.40;;;;;;4969529;28;20038;-84